sensor_id;sensor_type;location;lat;lon;timestamp;P1;durP1;ratioP1;P2;durP2;ratioP2
2658;SDS011;1339;53.304;10.406;2022-12-17T00:00:44;47.17;;;33.97;;
2658;SDS011;1339;53.304;10.406;2022-12-17T00:03:29;42.65;;;28.60;;
2658;SDS011;1339;53.304;10.406;2022-12-17T00:06:13;46.42;;;28.55;;
2658;SDS011;1339;53.304;10.406;2022-12-17T00:08:59;41.13;;;29.42;;
2658;SDS011;1339;53.304;10.406;2022-12-17T00:11:44;42.25;;;28.67;;
2658;SDS011;1339;53.304;10.406;2022-12-17T00:14:29;41.67;;;30.65;;
2658;SDS011;1339;53.304;10.406;2022-12-17T00:17:13;44.65;;;31.05;;
2658;SDS011;1339;53.304;10.406;2022-12-17T00:19:58;41.53;;;28.40;;
2658;SDS011;1339;53.304;10.406;2022-12-17T00:22:42;39.85;;;26.67;;
2658;SDS011;1339;53.304;10.406;2022-12-17T00:25:37;49.17;;;32.47;;
2658;SDS011;1339;53.304;10.406;2022-12-17T00:28:22;39.35;;;30.88;;
2658;SDS011;1339;53.304;10.406;2022-12-17T00:31:12;47.13;;;31.13;;
2658;SDS011;1339;53.304;10.406;2022-12-17T00:33:59;50.33;;;32.53;;
2658;SDS011;1339;53.304;10.406;2022-12-17T00:36:43;53.17;;;31.98;;
2658;SDS011;1339;53.304;10.406;2022-12-17T00:39:28;44.22;;;32.75;;
2658;SDS011;1339;53.304;10.406;2022-12-17T00:42:14;51.08;;;34.60;;
2658;SDS011;1339;53.304;10.406;2022-12-17T00:44:58;43.15;;;32.20;;
2658;SDS011;1339;53.304;10.406;2022-12-17T00:47:43;46.42;;;33.42;;
2658;SDS011;1339;53.304;10.406;2022-12-17T00:50:28;40.65;;;28.35;;
2658;SDS011;1339;53.304;10.406;2022-12-17T00:53:12;41.45;;;30.23;;
2658;SDS011;1339;53.304;10.406;2022-12-17T00:55:59;49.95;;;33.42;;
2658;SDS011;1339;53.304;10.406;2022-12-17T00:58:46;46.05;;;34.13;;
2658;SDS011;1339;53.304;10.406;2022-12-17T01:01:30;50.08;;;33.58;;
2658;SDS011;1339;53.304;10.406;2022-12-17T01:04:15;53.38;;;34.75;;
2658;SDS011;1339;53.304;10.406;2022-12-17T01:07:00;50.90;;;32.53;;
2658;SDS011;1339;53.304;10.406;2022-12-17T01:09:44;50.63;;;33.67;;
2658;SDS011;1339;53.304;10.406;2022-12-17T01:12:29;49.75;;;35.83;;
2658;SDS011;1339;53.304;10.406;2022-12-17T01:15:15;48.47;;;37.15;;
2658;SDS011;1339;53.304;10.406;2022-12-17T01:17:59;51.25;;;37.50;;
2658;SDS011;1339;53.304;10.406;2022-12-17T01:20:44;47.35;;;35.03;;
2658;SDS011;1339;53.304;10.406;2022-12-17T01:23:31;49.45;;;35.83;;
2658;SDS011;1339;53.304;10.406;2022-12-17T01:26:16;52.72;;;35.75;;
2658;SDS011;1339;53.304;10.406;2022-12-17T01:29:00;56.67;;;38.33;;
2658;SDS011;1339;53.304;10.406;2022-12-17T01:31:46;50.75;;;34.47;;
2658;SDS011;1339;53.304;10.406;2022-12-17T01:34:31;47.85;;;34.55;;
2658;SDS011;1339;53.304;10.406;2022-12-17T01:37:15;49.38;;;35.22;;
2658;SDS011;1339;53.304;10.406;2022-12-17T01:40:00;46.92;;;34.22;;
2658;SDS011;1339;53.304;10.406;2022-12-17T01:42:45;47.65;;;34.45;;
2658;SDS011;1339;53.304;10.406;2022-12-17T01:45:31;52.97;;;35.75;;
2658;SDS011;1339;53.304;10.406;2022-12-17T01:48:19;52.78;;;35.53;;
2658;SDS011;1339;53.304;10.406;2022-12-17T01:51:05;56.08;;;36.92;;
2658;SDS011;1339;53.304;10.406;2022-12-17T01:53:51;43.80;;;34.33;;
2658;SDS011;1339;53.304;10.406;2022-12-17T01:56:37;47.65;;;34.30;;
2658;SDS011;1339;53.304;10.406;2022-12-17T01:59:23;52.60;;;33.55;;
2658;SDS011;1339;53.304;10.406;2022-12-17T02:02:08;45.78;;;36.15;;
2658;SDS011;1339;53.304;10.406;2022-12-17T02:04:54;51.13;;;33.70;;
2658;SDS011;1339;53.304;10.406;2022-12-17T02:07:42;47.05;;;36.10;;
2658;SDS011;1339;53.304;10.406;2022-12-17T02:10:45;50.28;;;33.00;;
2658;SDS011;1339;53.304;10.406;2022-12-17T02:13:33;47.08;;;32.03;;
2658;SDS011;1339;53.304;10.406;2022-12-17T02:16:19;43.15;;;30.75;;
2658;SDS011;1339;53.304;10.406;2022-12-17T02:19:05;45.35;;;33.65;;
2658;SDS011;1339;53.304;10.406;2022-12-17T02:21:57;49.35;;;33.10;;
2658;SDS011;1339;53.304;10.406;2022-12-17T02:24:44;45.80;;;33.75;;
2658;SDS011;1339;53.304;10.406;2022-12-17T02:27:31;50.20;;;36.90;;
2658;SDS011;1339;53.304;10.406;2022-12-17T02:30:17;52.28;;;33.80;;
2658;SDS011;1339;53.304;10.406;2022-12-17T02:33:03;48.53;;;35.63;;
2658;SDS011;1339;53.304;10.406;2022-12-17T02:35:48;47.40;;;32.65;;
2658;SDS011;1339;53.304;10.406;2022-12-17T02:38:35;58.42;;;36.83;;
2658;SDS011;1339;53.304;10.406;2022-12-17T02:41:20;45.00;;;35.03;;
2658;SDS011;1339;53.304;10.406;2022-12-17T02:44:07;46.72;;;35.00;;
2658;SDS011;1339;53.304;10.406;2022-12-17T02:46:53;50.30;;;33.22;;
2658;SDS011;1339;53.304;10.406;2022-12-17T02:49:39;54.22;;;34.60;;
2658;SDS011;1339;53.304;10.406;2022-12-17T02:52:32;47.88;;;34.38;;
2658;SDS011;1339;53.304;10.406;2022-12-17T02:55:18;41.67;;;32.83;;
2658;SDS011;1339;53.304;10.406;2022-12-17T02:58:03;48.70;;;32.80;;
2658;SDS011;1339;53.304;10.406;2022-12-17T03:00:54;50.38;;;34.10;;
2658;SDS011;1339;53.304;10.406;2022-12-17T03:03:39;48.78;;;33.60;;
2658;SDS011;1339;53.304;10.406;2022-12-17T03:06:23;38.63;;;30.20;;
2658;SDS011;1339;53.304;10.406;2022-12-17T03:09:08;44.90;;;31.48;;
2658;SDS011;1339;53.304;10.406;2022-12-17T03:11:53;42.95;;;30.00;;
2658;SDS011;1339;53.304;10.406;2022-12-17T03:14:37;53.97;;;32.60;;
2658;SDS011;1339;53.304;10.406;2022-12-17T03:17:23;44.78;;;30.95;;
2658;SDS011;1339;53.304;10.406;2022-12-17T03:20:08;40.13;;;31.00;;
2658;SDS011;1339;53.304;10.406;2022-12-17T03:22:59;44.92;;;29.30;;
2658;SDS011;1339;53.304;10.406;2022-12-17T03:25:41;42.10;;;30.25;;
2658;SDS011;1339;53.304;10.406;2022-12-17T03:28:38;44.47;;;29.67;;
2658;SDS011;1339;53.304;10.406;2022-12-17T03:31:22;44.80;;;31.38;;
2658;SDS011;1339;53.304;10.406;2022-12-17T03:34:08;42.50;;;27.88;;
2658;SDS011;1339;53.304;10.406;2022-12-17T03:36:53;48.15;;;31.58;;
2658;SDS011;1339;53.304;10.406;2022-12-17T03:39:38;46.10;;;32.28;;
2658;SDS011;1339;53.304;10.406;2022-12-17T03:42:22;44.55;;;30.65;;
2658;SDS011;1339;53.304;10.406;2022-12-17T03:45:07;46.00;;;29.40;;
2658;SDS011;1339;53.304;10.406;2022-12-17T03:48:02;44.85;;;30.10;;
2658;SDS011;1339;53.304;10.406;2022-12-17T03:50:48;43.55;;;27.95;;
2658;SDS011;1339;53.304;10.406;2022-12-17T03:53:33;39.97;;;29.63;;
2658;SDS011;1339;53.304;10.406;2022-12-17T03:56:17;46.72;;;28.90;;
2658;SDS011;1339;53.304;10.406;2022-12-17T03:59:02;45.30;;;28.90;;
2658;SDS011;1339;53.304;10.406;2022-12-17T04:01:46;42.78;;;28.17;;
2658;SDS011;1339;53.304;10.406;2022-12-17T04:04:31;40.22;;;28.27;;
2658;SDS011;1339;53.304;10.406;2022-12-17T04:07:17;45.65;;;29.70;;
2658;SDS011;1339;53.304;10.406;2022-12-17T04:10:04;41.53;;;31.05;;
2658;SDS011;1339;53.304;10.406;2022-12-17T04:13:04;43.70;;;28.10;;
2658;SDS011;1339;53.304;10.406;2022-12-17T04:15:48;41.55;;;29.13;;
2658;SDS011;1339;53.304;10.406;2022-12-17T04:18:33;35.50;;;26.00;;
2658;SDS011;1339;53.304;10.406;2022-12-17T04:21:18;39.45;;;27.77;;
2658;SDS011;1339;53.304;10.406;2022-12-17T04:24:04;45.67;;;27.65;;
2658;SDS011;1339;53.304;10.406;2022-12-17T04:26:49;38.00;;;27.92;;
2658;SDS011;1339;53.304;10.406;2022-12-17T04:29:33;41.55;;;27.92;;
2658;SDS011;1339;53.304;10.406;2022-12-17T04:32:18;42.35;;;27.10;;
2658;SDS011;1339;53.304;10.406;2022-12-17T04:35:03;44.33;;;27.35;;
2658;SDS011;1339;53.304;10.406;2022-12-17T04:37:48;32.83;;;25.92;;
2658;SDS011;1339;53.304;10.406;2022-12-17T04:40:35;45.63;;;27.35;;
2658;SDS011;1339;53.304;10.406;2022-12-17T04:43:19;38.30;;;25.55;;
2658;SDS011;1339;53.304;10.406;2022-12-17T04:46:04;43.25;;;29.33;;
2658;SDS011;1339;53.304;10.406;2022-12-17T04:48:49;43.58;;;27.33;;
2658;SDS011;1339;53.304;10.406;2022-12-17T04:51:33;37.05;;;24.48;;
2658;SDS011;1339;53.304;10.406;2022-12-17T04:54:18;43.60;;;27.80;;
2658;SDS011;1339;53.304;10.406;2022-12-17T04:57:04;44.58;;;27.48;;
2658;SDS011;1339;53.304;10.406;2022-12-17T04:59:49;37.45;;;27.10;;
2658;SDS011;1339;53.304;10.406;2022-12-17T05:02:33;40.33;;;27.35;;
2658;SDS011;1339;53.304;10.406;2022-12-17T05:05:18;43.78;;;27.20;;
2658;SDS011;1339;53.304;10.406;2022-12-17T05:08:03;35.08;;;24.85;;
2658;SDS011;1339;53.304;10.406;2022-12-17T05:10:48;43.15;;;27.83;;
2658;SDS011;1339;53.304;10.406;2022-12-17T05:13:34;46.47;;;27.30;;
2658;SDS011;1339;53.304;10.406;2022-12-17T05:16:18;38.97;;;26.35;;
2658;SDS011;1339;53.304;10.406;2022-12-17T05:19:03;42.53;;;27.13;;
2658;SDS011;1339;53.304;10.406;2022-12-17T05:21:48;43.20;;;27.27;;
2658;SDS011;1339;53.304;10.406;2022-12-17T05:24:32;37.67;;;24.67;;
2658;SDS011;1339;53.304;10.406;2022-12-17T05:27:17;41.10;;;27.40;;
2658;SDS011;1339;53.304;10.406;2022-12-17T05:30:03;38.25;;;26.08;;
2658;SDS011;1339;53.304;10.406;2022-12-17T05:32:56;48.88;;;26.10;;
2658;SDS011;1339;53.304;10.406;2022-12-17T05:35:41;36.72;;;23.15;;
2658;SDS011;1339;53.304;10.406;2022-12-17T05:38:25;37.35;;;27.60;;
2658;SDS011;1339;53.304;10.406;2022-12-17T05:41:15;39.15;;;26.63;;
2658;SDS011;1339;53.304;10.406;2022-12-17T05:44:00;41.25;;;27.70;;
2658;SDS011;1339;53.304;10.406;2022-12-17T05:46:46;46.00;;;30.55;;
2658;SDS011;1339;53.304;10.406;2022-12-17T05:49:31;36.50;;;24.35;;
2658;SDS011;1339;53.304;10.406;2022-12-17T05:52:16;34.08;;;24.33;;
2658;SDS011;1339;53.304;10.406;2022-12-17T05:55:00;34.67;;;26.60;;
2658;SDS011;1339;53.304;10.406;2022-12-17T05:57:47;37.80;;;25.20;;
2658;SDS011;1339;53.304;10.406;2022-12-17T06:00:32;41.78;;;25.50;;
2658;SDS011;1339;53.304;10.406;2022-12-17T06:03:18;38.45;;;23.63;;
2658;SDS011;1339;53.304;10.406;2022-12-17T06:06:02;35.60;;;25.50;;
2658;SDS011;1339;53.304;10.406;2022-12-17T06:08:47;32.42;;;24.75;;
2658;SDS011;1339;53.304;10.406;2022-12-17T06:11:32;37.05;;;24.30;;
2658;SDS011;1339;53.304;10.406;2022-12-17T06:14:16;33.97;;;24.13;;
2658;SDS011;1339;53.304;10.406;2022-12-17T06:17:01;36.85;;;24.02;;
2658;SDS011;1339;53.304;10.406;2022-12-17T06:19:47;34.28;;;25.13;;
2658;SDS011;1339;53.304;10.406;2022-12-17T06:22:32;37.35;;;25.38;;
2658;SDS011;1339;53.304;10.406;2022-12-17T06:25:16;31.13;;;23.25;;
2658;SDS011;1339;53.304;10.406;2022-12-17T06:28:01;33.80;;;23.85;;
2658;SDS011;1339;53.304;10.406;2022-12-17T06:30:42;35.92;;;24.23;;
2658;SDS011;1339;53.304;10.406;2022-12-17T06:33:27;37.88;;;27.63;;
2658;SDS011;1339;53.304;10.406;2022-12-17T06:36:13;31.63;;;24.25;;
2658;SDS011;1339;53.304;10.406;2022-12-17T06:38:57;36.70;;;24.05;;
2658;SDS011;1339;53.304;10.406;2022-12-17T06:41:42;33.53;;;25.17;;
2658;SDS011;1339;53.304;10.406;2022-12-17T06:44:27;36.70;;;25.83;;
2658;SDS011;1339;53.304;10.406;2022-12-17T06:47:20;33.97;;;21.63;;
2658;SDS011;1339;53.304;10.406;2022-12-17T06:50:05;34.10;;;25.27;;
2658;SDS011;1339;53.304;10.406;2022-12-17T06:52:57;34.10;;;25.00;;
2658;SDS011;1339;53.304;10.406;2022-12-17T06:55:42;43.13;;;24.80;;
2658;SDS011;1339;53.304;10.406;2022-12-17T06:58:27;44.45;;;25.83;;
2658;SDS011;1339;53.304;10.406;2022-12-17T07:01:12;38.75;;;27.13;;
2658;SDS011;1339;53.304;10.406;2022-12-17T07:03:56;37.17;;;25.55;;
2658;SDS011;1339;53.304;10.406;2022-12-17T07:06:46;34.40;;;24.05;;
2658;SDS011;1339;53.304;10.406;2022-12-17T07:09:32;36.25;;;23.95;;
2658;SDS011;1339;53.304;10.406;2022-12-17T07:12:25;32.83;;;24.05;;
2658;SDS011;1339;53.304;10.406;2022-12-17T07:15:10;32.42;;;22.27;;
2658;SDS011;1339;53.304;10.406;2022-12-17T07:17:56;34.67;;;23.77;;
2658;SDS011;1339;53.304;10.406;2022-12-17T07:20:41;30.52;;;21.75;;
2658;SDS011;1339;53.304;10.406;2022-12-17T07:23:26;26.60;;;19.52;;
2658;SDS011;1339;53.304;10.406;2022-12-17T07:26:12;26.25;;;20.10;;
2658;SDS011;1339;53.304;10.406;2022-12-17T07:28:56;33.53;;;21.50;;
2658;SDS011;1339;53.304;10.406;2022-12-17T07:31:41;32.83;;;23.02;;
2658;SDS011;1339;53.304;10.406;2022-12-17T07:34:26;32.25;;;24.75;;
2658;SDS011;1339;53.304;10.406;2022-12-17T07:37:07;34.72;;;23.25;;
2658;SDS011;1339;53.304;10.406;2022-12-17T07:39:52;31.10;;;22.25;;
2658;SDS011;1339;53.304;10.406;2022-12-17T07:42:39;37.78;;;22.25;;
2658;SDS011;1339;53.304;10.406;2022-12-17T07:45:23;31.98;;;23.50;;
2658;SDS011;1339;53.304;10.406;2022-12-17T07:48:09;31.40;;;22.08;;
2658;SDS011;1339;53.304;10.406;2022-12-17T07:50:53;29.50;;;21.98;;
2658;SDS011;1339;53.304;10.406;2022-12-17T07:53:38;39.45;;;23.85;;
2658;SDS011;1339;53.304;10.406;2022-12-17T07:56:22;33.80;;;23.27;;
2658;SDS011;1339;53.304;10.406;2022-12-17T07:59:08;37.53;;;23.70;;
2658;SDS011;1339;53.304;10.406;2022-12-17T08:01:54;34.55;;;22.75;;
2658;SDS011;1339;53.304;10.406;2022-12-17T08:04:39;32.38;;;21.55;;
2658;SDS011;1339;53.304;10.406;2022-12-17T08:07:24;41.70;;;24.75;;
2658;SDS011;1339;53.304;10.406;2022-12-17T08:10:09;32.33;;;24.00;;
2658;SDS011;1339;53.304;10.406;2022-12-17T08:12:54;43.78;;;25.33;;
2658;SDS011;1339;53.304;10.406;2022-12-17T08:15:40;44.83;;;27.20;;
2658;SDS011;1339;53.304;10.406;2022-12-17T08:18:25;41.03;;;27.38;;
2658;SDS011;1339;53.304;10.406;2022-12-17T08:21:10;36.08;;;24.83;;
2658;SDS011;1339;53.304;10.406;2022-12-17T08:24:06;40.33;;;26.35;;
2658;SDS011;1339;53.304;10.406;2022-12-17T08:26:51;37.83;;;24.33;;
2658;SDS011;1339;53.304;10.406;2022-12-17T08:29:36;32.38;;;22.30;;
2658;SDS011;1339;53.304;10.406;2022-12-17T08:32:22;32.70;;;23.05;;
2658;SDS011;1339;53.304;10.406;2022-12-17T08:35:07;28.98;;;23.38;;
2658;SDS011;1339;53.304;10.406;2022-12-17T08:37:52;38.13;;;24.75;;
2658;SDS011;1339;53.304;10.406;2022-12-17T08:40:38;35.70;;;24.45;;
2658;SDS011;1339;53.304;10.406;2022-12-17T08:43:22;38.33;;;25.05;;
2658;SDS011;1339;53.304;10.406;2022-12-17T08:46:07;36.17;;;24.83;;
2658;SDS011;1339;53.304;10.406;2022-12-17T08:48:53;37.13;;;23.50;;
2658;SDS011;1339;53.304;10.406;2022-12-17T08:51:52;31.55;;;24.25;;
2658;SDS011;1339;53.304;10.406;2022-12-17T08:54:37;34.75;;;24.02;;
2658;SDS011;1339;53.304;10.406;2022-12-17T08:57:22;36.40;;;24.63;;
2658;SDS011;1339;53.304;10.406;2022-12-17T09:00:07;31.77;;;23.30;;
2658;SDS011;1339;53.304;10.406;2022-12-17T09:02:54;35.70;;;25.83;;
2658;SDS011;1339;53.304;10.406;2022-12-17T09:05:43;37.30;;;25.35;;
2658;SDS011;1339;53.304;10.406;2022-12-17T09:08:28;38.55;;;24.48;;
2658;SDS011;1339;53.304;10.406;2022-12-17T09:11:13;39.65;;;26.10;;
2658;SDS011;1339;53.304;10.406;2022-12-17T09:13:58;35.90;;;25.23;;
2658;SDS011;1339;53.304;10.406;2022-12-17T09:16:43;34.58;;;22.65;;
2658;SDS011;1339;53.304;10.406;2022-12-17T09:19:28;37.25;;;25.67;;
2658;SDS011;1339;53.304;10.406;2022-12-17T09:22:17;36.63;;;25.08;;
2658;SDS011;1339;53.304;10.406;2022-12-17T09:25:02;42.90;;;25.42;;
2658;SDS011;1339;53.304;10.406;2022-12-17T09:27:46;36.20;;;23.10;;
2658;SDS011;1339;53.304;10.406;2022-12-17T09:30:45;29.15;;;20.95;;
2658;SDS011;1339;53.304;10.406;2022-12-17T09:33:30;31.48;;;23.48;;
2658;SDS011;1339;53.304;10.406;2022-12-17T09:36:15;32.85;;;22.88;;
2658;SDS011;1339;53.304;10.406;2022-12-17T09:39:01;35.25;;;24.60;;
2658;SDS011;1339;53.304;10.406;2022-12-17T09:41:49;32.30;;;21.92;;
2658;SDS011;1339;53.304;10.406;2022-12-17T09:44:37;33.05;;;21.13;;
2658;SDS011;1339;53.304;10.406;2022-12-17T09:47:26;51.72;;;25.45;;
2658;SDS011;1339;53.304;10.406;2022-12-17T09:50:13;33.33;;;23.92;;
2658;SDS011;1339;53.304;10.406;2022-12-17T09:52:58;27.92;;;22.83;;
2658;SDS011;1339;53.304;10.406;2022-12-17T09:55:46;30.35;;;23.08;;
2658;SDS011;1339;53.304;10.406;2022-12-17T09:58:33;32.67;;;24.45;;
2658;SDS011;1339;53.304;10.406;2022-12-17T10:01:19;41.22;;;25.92;;
2658;SDS011;1339;53.304;10.406;2022-12-17T10:04:06;38.97;;;24.65;;
2658;SDS011;1339;53.304;10.406;2022-12-17T10:06:54;32.60;;;24.55;;
2658;SDS011;1339;53.304;10.406;2022-12-17T10:09:40;31.33;;;24.15;;
2658;SDS011;1339;53.304;10.406;2022-12-17T10:12:26;33.10;;;25.75;;
2658;SDS011;1339;53.304;10.406;2022-12-17T10:15:12;33.33;;;22.70;;
2658;SDS011;1339;53.304;10.406;2022-12-17T10:17:57;32.28;;;22.42;;
2658;SDS011;1339;53.304;10.406;2022-12-17T10:20:49;25.83;;;20.63;;
2658;SDS011;1339;53.304;10.406;2022-12-17T10:23:36;36.53;;;22.58;;
2658;SDS011;1339;53.304;10.406;2022-12-17T10:26:21;30.65;;;23.23;;
2658;SDS011;1339;53.304;10.406;2022-12-17T10:29:10;33.03;;;22.88;;
2658;SDS011;1339;53.304;10.406;2022-12-17T10:31:56;30.40;;;22.70;;
2658;SDS011;1339;53.304;10.406;2022-12-17T10:34:43;32.72;;;21.85;;
2658;SDS011;1339;53.304;10.406;2022-12-17T10:37:28;40.13;;;25.80;;
2658;SDS011;1339;53.304;10.406;2022-12-17T10:40:17;41.58;;;25.80;;
2658;SDS011;1339;53.304;10.406;2022-12-17T10:46:04;27.08;;;21.42;;
2658;SDS011;1339;53.304;10.406;2022-12-17T10:48:49;32.35;;;23.20;;
2658;SDS011;1339;53.304;10.406;2022-12-17T10:51:33;31.42;;;22.70;;
2658;SDS011;1339;53.304;10.406;2022-12-17T10:54:19;33.53;;;21.58;;
2658;SDS011;1339;53.304;10.406;2022-12-17T10:57:06;28.95;;;21.50;;
2658;SDS011;1339;53.304;10.406;2022-12-17T10:59:51;30.48;;;22.27;;
2658;SDS011;1339;53.304;10.406;2022-12-17T11:02:37;34.55;;;22.67;;
2658;SDS011;1339;53.304;10.406;2022-12-17T11:05:23;33.53;;;23.20;;
2658;SDS011;1339;53.304;10.406;2022-12-17T11:08:09;31.67;;;22.92;;
2658;SDS011;1339;53.304;10.406;2022-12-17T11:10:55;27.15;;;22.48;;
2658;SDS011;1339;53.304;10.406;2022-12-17T11:13:40;28.90;;;21.08;;
2658;SDS011;1339;53.304;10.406;2022-12-17T11:16:27;28.05;;;21.65;;
2658;SDS011;1339;53.304;10.406;2022-12-17T11:19:20;35.20;;;23.45;;
2658;SDS011;1339;53.304;10.406;2022-12-17T11:22:11;26.38;;;21.27;;
2658;SDS011;1339;53.304;10.406;2022-12-17T11:25:02;34.92;;;21.90;;
2658;SDS011;1339;53.304;10.406;2022-12-17T11:27:48;31.52;;;21.63;;
2658;SDS011;1339;53.304;10.406;2022-12-17T11:30:37;29.63;;;22.10;;
2658;SDS011;1339;53.304;10.406;2022-12-17T11:33:24;31.85;;;20.92;;
2658;SDS011;1339;53.304;10.406;2022-12-17T11:36:14;26.98;;;21.10;;
2658;SDS011;1339;53.304;10.406;2022-12-17T11:39:03;30.83;;;19.63;;
2658;SDS011;1339;53.304;10.406;2022-12-17T11:41:50;30.05;;;19.98;;
2658;SDS011;1339;53.304;10.406;2022-12-17T11:44:40;22.67;;;18.45;;
2658;SDS011;1339;53.304;10.406;2022-12-17T11:47:28;23.23;;;17.25;;
2658;SDS011;1339;53.304;10.406;2022-12-17T11:50:19;21.73;;;16.30;;
2658;SDS011;1339;53.304;10.406;2022-12-17T11:53:14;26.02;;;18.30;;
2658;SDS011;1339;53.304;10.406;2022-12-17T11:56:03;26.23;;;17.92;;
2658;SDS011;1339;53.304;10.406;2022-12-17T11:58:51;21.33;;;16.80;;
2658;SDS011;1339;53.304;10.406;2022-12-17T12:01:37;19.40;;;15.25;;
2658;SDS011;1339;53.304;10.406;2022-12-17T12:04:30;26.75;;;17.38;;
2658;SDS011;1339;53.304;10.406;2022-12-17T12:07:19;24.42;;;15.55;;
2658;SDS011;1339;53.304;10.406;2022-12-17T12:10:09;21.13;;;15.45;;
2658;SDS011;1339;53.304;10.406;2022-12-17T12:12:58;18.20;;;15.82;;
2658;SDS011;1339;53.304;10.406;2022-12-17T12:15:47;22.60;;;18.60;;
2658;SDS011;1339;53.304;10.406;2022-12-17T12:18:38;15.88;;;13.75;;
2658;SDS011;1339;53.304;10.406;2022-12-17T12:21:30;20.95;;;13.82;;
2658;SDS011;1339;53.304;10.406;2022-12-17T12:24:22;17.33;;;14.00;;
2658;SDS011;1339;53.304;10.406;2022-12-17T12:27:10;16.98;;;15.05;;
2658;SDS011;1339;53.304;10.406;2022-12-17T12:30:00;18.58;;;14.15;;
2658;SDS011;1339;53.304;10.406;2022-12-17T12:32:49;25.60;;;14.80;;
2658;SDS011;1339;53.304;10.406;2022-12-17T12:35:37;18.25;;;12.30;;
2658;SDS011;1339;53.304;10.406;2022-12-17T12:38:23;17.02;;;12.85;;
2658;SDS011;1339;53.304;10.406;2022-12-17T12:41:12;20.48;;;13.93;;
2658;SDS011;1339;53.304;10.406;2022-12-17T12:44:00;19.25;;;13.52;;
2658;SDS011;1339;53.304;10.406;2022-12-17T12:46:51;16.58;;;12.93;;
2658;SDS011;1339;53.304;10.406;2022-12-17T12:49:49;23.80;;;14.00;;
2658;SDS011;1339;53.304;10.406;2022-12-17T12:52:36;13.82;;;11.48;;
2658;SDS011;1339;53.304;10.406;2022-12-17T12:55:21;17.02;;;12.45;;
2658;SDS011;1339;53.304;10.406;2022-12-17T12:58:21;19.23;;;13.30;;
2658;SDS011;1339;53.304;10.406;2022-12-17T13:01:08;17.90;;;13.57;;
2658;SDS011;1339;53.304;10.406;2022-12-17T13:03:54;16.38;;;13.00;;
2658;SDS011;1339;53.304;10.406;2022-12-17T13:06:40;15.95;;;13.68;;
2658;SDS011;1339;53.304;10.406;2022-12-17T13:09:21;15.75;;;11.07;;
2658;SDS011;1339;53.304;10.406;2022-12-17T13:11:52;16.75;;;13.07;;
2658;SDS011;1339;53.304;10.406;2022-12-17T13:14:22;19.77;;;14.90;;
2658;SDS011;1339;53.304;10.406;2022-12-17T13:16:52;17.20;;;12.60;;
2658;SDS011;1339;53.304;10.406;2022-12-17T13:19:31;14.63;;;11.70;;
2658;SDS011;1339;53.304;10.406;2022-12-17T13:22:08;17.25;;;10.82;;
2658;SDS011;1339;53.304;10.406;2022-12-17T13:24:35;15.98;;;12.32;;
2658;SDS011;1339;53.304;10.406;2022-12-17T13:27:03;13.77;;;11.27;;
2658;SDS011;1339;53.304;10.406;2022-12-17T13:29:31;16.83;;;11.27;;
2658;SDS011;1339;53.304;10.406;2022-12-17T13:32:04;15.95;;;12.30;;
2658;SDS011;1339;53.304;10.406;2022-12-17T13:34:35;16.45;;;11.73;;
2658;SDS011;1339;53.304;10.406;2022-12-17T13:37:06;16.60;;;11.25;;
2658;SDS011;1339;53.304;10.406;2022-12-17T13:39:36;16.23;;;11.38;;
2658;SDS011;1339;53.304;10.406;2022-12-17T13:42:13;16.85;;;12.98;;
2658;SDS011;1339;53.304;10.406;2022-12-17T13:44:43;17.08;;;11.00;;
2658;SDS011;1339;53.304;10.406;2022-12-17T13:47:18;11.90;;;10.40;;
2658;SDS011;1339;53.304;10.406;2022-12-17T13:49:48;13.55;;;10.38;;
2658;SDS011;1339;53.304;10.406;2022-12-17T13:52:16;12.27;;;10.60;;
2658;SDS011;1339;53.304;10.406;2022-12-17T13:54:43;12.18;;;10.13;;
2658;SDS011;1339;53.304;10.406;2022-12-17T13:57:12;15.93;;;11.35;;
2658;SDS011;1339;53.304;10.406;2022-12-17T13:59:39;14.00;;;11.27;;
2658;SDS011;1339;53.304;10.406;2022-12-17T14:02:21;15.00;;;12.77;;
2658;SDS011;1339;53.304;10.406;2022-12-17T14:04:50;16.50;;;13.02;;
2658;SDS011;1339;53.304;10.406;2022-12-17T14:07:17;15.15;;;11.30;;
2658;SDS011;1339;53.304;10.406;2022-12-17T14:09:45;14.52;;;9.50;;
2658;SDS011;1339;53.304;10.406;2022-12-17T14:12:13;13.60;;;10.23;;
2658;SDS011;1339;53.304;10.406;2022-12-17T14:14:46;12.95;;;10.13;;
2658;SDS011;1339;53.304;10.406;2022-12-17T14:17:17;14.77;;;11.55;;
2658;SDS011;1339;53.304;10.406;2022-12-17T14:19:46;10.93;;;9.60;;
2658;SDS011;1339;53.304;10.406;2022-12-17T14:22:17;12.93;;;10.57;;
2658;SDS011;1339;53.304;10.406;2022-12-17T14:24:45;17.08;;;10.35;;
2658;SDS011;1339;53.304;10.406;2022-12-17T14:27:23;14.70;;;10.95;;
2658;SDS011;1339;53.304;10.406;2022-12-17T14:29:51;14.85;;;10.73;;
2658;SDS011;1339;53.304;10.406;2022-12-17T14:32:22;11.13;;;9.93;;
2658;SDS011;1339;53.304;10.406;2022-12-17T14:34:51;12.85;;;10.98;;
2658;SDS011;1339;53.304;10.406;2022-12-17T14:37:20;17.15;;;10.52;;
2658;SDS011;1339;53.304;10.406;2022-12-17T14:39:48;11.40;;;10.15;;
2658;SDS011;1339;53.304;10.406;2022-12-17T14:42:16;11.95;;;10.65;;
2658;SDS011;1339;53.304;10.406;2022-12-17T14:44:50;12.77;;;10.38;;
2658;SDS011;1339;53.304;10.406;2022-12-17T14:47:19;17.88;;;10.07;;
2658;SDS011;1339;53.304;10.406;2022-12-17T14:49:49;11.45;;;9.90;;
2658;SDS011;1339;53.304;10.406;2022-12-17T14:52:19;11.35;;;10.15;;
2658;SDS011;1339;53.304;10.406;2022-12-17T14:54:48;12.10;;;9.93;;
2658;SDS011;1339;53.304;10.406;2022-12-17T14:57:19;11.00;;;9.82;;
2658;SDS011;1339;53.304;10.406;2022-12-17T14:59:46;13.35;;;11.90;;
2658;SDS011;1339;53.304;10.406;2022-12-17T15:02:17;15.57;;;10.95;;
2658;SDS011;1339;53.304;10.406;2022-12-17T15:04:47;14.45;;;10.52;;
2658;SDS011;1339;53.304;10.406;2022-12-17T15:07:16;13.48;;;10.63;;
2658;SDS011;1339;53.304;10.406;2022-12-17T15:09:45;13.23;;;10.88;;
2658;SDS011;1339;53.304;10.406;2022-12-17T15:12:12;16.10;;;11.38;;
2658;SDS011;1339;53.304;10.406;2022-12-17T15:14:39;13.32;;;11.13;;
2658;SDS011;1339;53.304;10.406;2022-12-17T15:17:06;15.88;;;11.43;;
2658;SDS011;1339;53.304;10.406;2022-12-17T15:19:33;16.58;;;11.75;;
2658;SDS011;1339;53.304;10.406;2022-12-17T15:22:01;15.93;;;11.68;;
2658;SDS011;1339;53.304;10.406;2022-12-17T15:24:29;21.98;;;13.40;;
2658;SDS011;1339;53.304;10.406;2022-12-17T15:26:57;17.63;;;12.60;;
2658;SDS011;1339;53.304;10.406;2022-12-17T15:29:24;18.52;;;14.98;;
2658;SDS011;1339;53.304;10.406;2022-12-17T15:31:52;15.55;;;14.10;;
2658;SDS011;1339;53.304;10.406;2022-12-17T15:34:19;22.38;;;14.32;;
2658;SDS011;1339;53.304;10.406;2022-12-17T15:36:46;16.67;;;14.02;;
2658;SDS011;1339;53.304;10.406;2022-12-17T15:39:14;21.65;;;12.85;;
2658;SDS011;1339;53.304;10.406;2022-12-17T15:41:41;20.30;;;14.77;;
2658;SDS011;1339;53.304;10.406;2022-12-17T15:44:27;19.92;;;15.52;;
2658;SDS011;1339;53.304;10.406;2022-12-17T15:46:54;21.00;;;15.23;;
2658;SDS011;1339;53.304;10.406;2022-12-17T15:49:21;19.92;;;16.10;;
2658;SDS011;1339;53.304;10.406;2022-12-17T15:51:48;21.70;;;15.82;;
2658;SDS011;1339;53.304;10.406;2022-12-17T15:54:15;19.80;;;16.92;;
2658;SDS011;1339;53.304;10.406;2022-12-17T15:56:42;26.92;;;15.75;;
2658;SDS011;1339;53.304;10.406;2022-12-17T15:59:17;20.92;;;16.23;;
2658;SDS011;1339;53.304;10.406;2022-12-17T16:01:45;22.85;;;16.30;;
2658;SDS011;1339;53.304;10.406;2022-12-17T16:04:13;21.55;;;16.38;;
2658;SDS011;1339;53.304;10.406;2022-12-17T16:06:40;19.17;;;14.52;;
2658;SDS011;1339;53.304;10.406;2022-12-17T16:09:07;29.42;;;16.88;;
2658;SDS011;1339;53.304;10.406;2022-12-17T16:11:34;17.83;;;15.15;;